Latest Weather Observations for Coles Point

IDS60801

Issued at 11:05 pm CST Tuesday 2 September 2014 (issued every 30 minutes, with the page automatically refreshed every 10 minutes)

About weather observations | Map of weather stations | Latest weather observations for SA | Other Formats
Station Details ID: 018191 Name: COLES POINT Lat: -34.37 Lon: 135.37 Height: 28.0 m
Data from the previous 72 hours. | See also: Recent months at Coles Point
Date/Time
CST
Temp
°C
App
Temp
°C
Dew
Point
Rel
Hum
%
Delta-T
°C
Wind Press
QNH
hPa
Press
MSL
hPa
Rain
since 9 am
mm
Dir
 
Spd
km/h
Gust
km/h
Spd
kts
Gust
kts
02/11:00pm 7.5 5.3 5.3 86 1.0 ENE 6 7 3 4 1026.7 1026.7 0.0
02/10:30pm 8.3 5.7 5.9 85 1.1 ENE 9 9 5 5 1027.0 1027.0 0.0
02/10:00pm 7.2 4.0 4.9 85 1.0 ESE 11 13 6 7 1027.2 1027.2 0.0
02/09:30pm 7.2 4.0 5.0 86 1.0 ESE 11 13 6 7 1027.3 1027.3 0.0
02/09:00pm 7.9 4.4 5.4 84 1.1 SE 13 15 7 8 1027.4 1027.4 0.0
02/08:30pm 8.8 5.0 5.7 81 1.4 SE 15 17 8 9 1027.5 1027.5 0.0
02/08:00pm 9.6 7.4 6.3 80 1.5 SE 7 9 4 5 1027.8 1027.8 0.0
02/07:30pm 10.2 8.3 6.5 78 1.7 SE 6 7 3 4 1027.8 1027.8 0.0
02/07:00pm 10.8 8.6 6.4 74 2.1 SE 7 9 4 5 1027.2 1027.2 0.0
02/06:30pm 11.3 9.2 6.6 73 2.2 SSE 7 9 4 5 1027.2 1027.2 0.0
02/06:00pm 11.6 9.1 6.5 71 2.4 S 9 11 5 6 1027.1 1027.1 0.0
02/05:30pm 13.0 9.6 6.1 63 3.2 S 13 19 7 10 1026.6 1026.6 0.0
02/05:00pm 13.6 9.1 6.0 60 3.6 S 19 24 10 13 1026.3 1026.3 0.0
02/04:30pm 13.6 8.9 5.3 57 3.9 S 19 24 10 13 1026.3 1026.3 0.0
02/04:00pm 14.1 9.9 5.7 57 4.0 S 17 26 9 14 1026.4 1026.4 0.0
02/03:30pm 14.1 9.3 5.5 56 4.0 SSW 20 28 11 15 1026.6 1026.6 0.0
02/03:00pm 14.3 9.6 5.9 57 4.0 SSW 20 26 11 14 1026.5 1026.5 0.0
02/02:30pm 14.5 9.4 6.1 57 4.0 SSW 22 28 12 15 1026.4 1026.4 0.0
02/02:00pm 14.5 9.9 6.3 58 3.9 SSW 20 26 11 14 1026.4 1026.4 0.0
02/01:30pm 14.6 10.2 6.7 59 3.8 SSW 19 28 10 15 1026.6 1026.6 0.0
02/01:00pm 14.3 9.8 5.9 57 4.0 S 19 28 10 15 1027.1 1027.1 0.0
02/12:30pm 13.8 9.8 6.7 62 3.4 SSW 17 22 9 12 1027.7 1027.7 0.0
02/12:00pm 13.5 8.7 5.7 59 3.7 SSW 20 26 11 14 1027.8 1027.8 0.0
02/11:30am 13.5 9.0 5.9 60 3.6 SSW 19 28 10 15 1028.0 1028.0 0.0
02/11:00am 13.2 8.7 6.3 63 3.3 SSW 19 24 10 13 1028.2 1028.2 0.0
02/10:30am 13.2 8.8 4.6 56 3.9 S 17 24 9 13 1028.1 1028.1 0.0
02/10:00am 12.9 7.8 4.3 56 3.9 S 20 26 11 14 1027.9 1027.9 0.0
02/09:30am 13.3 9.1 5.5 59 3.6 S 17 28 9 15 1027.7 1027.7 0.0
02/09:00am 12.8 8.1 5.0 59 3.6 S 19 26 10 14 1027.6 1027.6 4.0
02/08:30am 12.4 7.6 4.9 60 3.4 S 19 22 10 12 1027.3 1027.3 4.0
02/08:00am 11.4 7.4 5.1 65 2.9 S 15 20 8 11 1027.0 1027.0 4.0
02/07:30am 11.1 6.6 4.3 63 3.0 S 17 24 9 13 1027.0 1027.0 4.0
02/07:00am 11.5 6.5 3.8 59 3.4 SSW 19 28 10 15 1026.8 1026.8 4.0
02/06:30am 10.9 7.1 4.1 63 3.0 S 13 20 7 11 1026.3 1026.3 4.0
02/06:00am 10.0 5.7 3.5 64 2.8 S 15 22 8 12 1026.2 1026.2 4.0
02/05:30am 10.6 5.4 3.6 62 3.1 SSW 20 32 11 17 1025.8 1025.8 4.0
02/05:00am 11.0 5.1 3.8 61 3.2 SSW 24 33 13 18 1025.5 1025.5 4.0
02/04:30am 11.4 6.6 5.7 68 2.6 SSW 20 30 11 16 1025.3 1025.3 4.0
02/04:00am 11.0 5.0 5.5 69 2.5 S 26 37 14 20 1025.0 1025.0 4.0
02/03:30am 11.3 5.7 5.6 68 2.6 SSW 24 33 13 18 1024.6 1024.6 4.0
02/03:00am 11.3 5.2 5.0 65 2.9 SSW 26 37 14 20 1024.5 1024.5 4.0
02/02:30am 11.0 6.2 5.7 70 2.4 S 20 30 11 16 1024.5 1024.5 4.0
02/02:00am 10.9 5.4 5.7 70 2.4 SSW 24 33 13 18 1024.5 1024.5 4.0
02/01:30am 10.8 5.2 5.6 70 2.4 SSW 24 32 13 17 1024.4 1024.4 4.0
02/01:00am 10.5 4.9 7.0 79 1.7 SSW 26 35 14 19 1024.5 1024.5 4.0
02/12:47am 11.3 4.6 5.4 67 2.7 SSW 30 52 16 28 1024.2 1024.2 4.0
02/12:30am 11.2 4.4 5.3 67 2.7 SSW 30 41 16 22 1024.1 1024.1 4.0
02/12:00am 11.2 4.8 5.3 67 2.7 SSW 28 41 15 22 1024.0 1024.0 4.0
 
Date/Time
CST
Temp
°C
App
Temp
°C
Dew
Point
Rel
Hum
%
Delta-T
°C
Wind Press
QNH
hPa
Press
MSL
hPa
Rain
since 9 am
mm
Dir
 
Spd
km/h
Gust
km/h
Spd
kts
Gust
kts
01/11:30pm 10.9 4.3 5.9 71 2.3 SSW 30 43 16 23 1024.0 1024.0 4.0
01/11:00pm 11.0 5.7 6.6 74 2.1 SSW 24 33 13 18 1023.9 1023.9 4.0
01/10:30pm 10.4 4.2 6.0 74 2.0 SSW 28 41 15 22 1023.9 1023.9 4.0
01/10:00pm 10.2 3.6 6.2 76 1.9 SSW 30 50 16 27 1023.6 1023.6 4.0
01/09:30pm 11.5 4.4 3.5 58 3.5 SSW 30 41 16 22 1023.1 1023.1 3.8
01/09:00pm 11.1 3.8 5.4 68 2.6 SW 33 43 18 23 1022.9 1022.9 3.8
01/08:48pm 10.7 3.9 5.3 69 2.5 SSW 30 50 16 27 1022.8 1022.8 3.8
01/08:30pm 11.7 4.2 4.2 60 3.4 SW 33 41 18 22 1022.4 1022.4 3.8
01/08:00pm 11.6 5.1 4.6 62 3.2 SSW 28 37 15 20 1021.9 1021.9 3.8
01/07:30pm 11.5 5.2 5.6 67 2.7 SSW 28 41 15 22 1021.6 1021.6 3.8
01/07:00pm 11.1 4.1 4.1 62 3.1 SW 30 46 16 25 1021.0 1021.0 3.8
01/06:30pm 11.7 4.5 5.1 64 3.0 SSW 32 43 17 23 1020.5 1020.5 3.8
01/06:00pm 11.4 4.1 5.3 66 2.8 SSW 33 48 18 26 1020.0 1019.9 3.8
01/05:30pm 12.1 4.3 4.8 61 3.3 SW 35 44 19 24 1019.3 1019.2 3.6
01/05:00pm 12.1 5.0 5.5 64 3.1 SW 32 43 17 23 1018.9 1018.8 3.6
01/04:30pm 13.3 6.0 5.5 59 3.6 SW 33 44 18 24 1018.4 1018.3 3.6
01/04:00pm 13.8 6.6 5.7 58 3.8 SW 33 46 18 25 1017.9 1017.9 3.6
01/03:36pm 13.3 6.2 6.2 62 3.4 SW 33 52 18 28 1017.5 1017.5 3.6
01/03:30pm 13.1 6.3 6.9 66 3.0 SW 32 43 17 23 1017.5 1017.5 3.6
01/03:00pm 14.3 7.8 6.6 60 3.7 WSW 30 39 16 21 1017.1 1017.1 3.6
01/02:30pm 14.0 7.5 6.6 61 3.6 SW 30 39 16 21 1016.8 1016.8 3.6
01/02:00pm 13.2 6.4 7.9 70 2.6 SW 33 43 18 23 1016.8 1016.8 3.6
01/01:30pm 13.9 8.3 8.9 72 2.5 SW 28 44 15 24 1016.6 1016.6 3.6
01/01:00pm 13.6 9.0 9.5 76 2.1 SW 24 33 13 18 1016.6 1016.6 3.6
01/12:30pm 11.5 9.5 10.2 92 0.7 W 11 19 6 10 1016.8 1016.8 3.6
01/12:00pm 12.0 5.1 7.1 72 2.4 SW 33 44 18 24 1017.0 1017.0 0.2
01/11:30am 15.0 10.3 7.8 62 3.6 W 22 30 12 16 1016.5 1016.5 0.2
01/11:00am 14.9 9.8 6.2 56 4.2 WSW 22 30 12 16 1016.4 1016.4 0.2
01/10:30am 14.8 10.2 6.4 57 4.1 WSW 20 26 11 14 1016.4 1016.4 0.2
01/10:00am 14.5 10.7 7.5 63 3.5 WSW 17 24 9 13 1016.4 1016.4 0.0
01/09:30am 14.3 10.2 7.8 65 3.2 WSW 19 24 10 13 1016.1 1016.1 0.0
01/09:00am 13.8 9.9 8.6 71 2.6 SW 19 22 10 12 1015.9 1016.0 1.6
01/08:30am 13.4 10.4 9.1 75 2.2 SW 15 22 8 12 1015.7 1015.8 1.6
01/08:00am 12.4 9.7 9.1 80 1.7 SW 13 19 7 10 1015.3 1015.4 1.6
01/07:30am 12.2 9.1 9.0 81 1.6 SW 15 20 8 11 1014.9 1015.0 1.6
01/07:00am 11.1 8.6 8.3 83 1.4 SW 11 15 6 8 1014.5 1014.6 1.6
01/06:30am 11.2 8.4 8.4 83 1.4 SW 13 17 7 9 1014.3 1014.4 1.6
01/06:00am 12.2 8.2 8.9 80 1.7 SW 20 24 11 13 1014.3 1014.4 1.6
01/05:30am 12.5 8.6 8.6 77 1.9 SW 19 24 10 13 1014.0 1014.0 1.6
01/05:00am 12.4 9.4 9.2 81 1.6 SW 15 22 8 12 1013.6 1013.6 1.6
01/04:30am 11.6 10.2 9.5 87 1.1 S 7 9 4 5 1013.3 1013.3 1.6
01/04:00am 11.7 10.6 10.6 93 0.6 SSW 7 13 4 7 1013.1 1013.1 1.6
01/03:30am 11.9 11.1 11.1 95 0.4 S 6 9 3 5 1012.9 1012.9 1.6
01/03:00am 12.1 10.0 11.3 95 0.4 S 13 17 7 9 1013.1 1013.1 1.6
01/02:30am 12.1 9.7 11.3 95 0.4 S 15 20 8 11 1013.0 1013.0 1.6
01/02:00am 12.7 10.1 11.9 95 0.4 SW 17 22 9 12 1012.6 1012.6 1.6
01/01:30am 12.5 8.7 11.2 92 0.7 SSW 22 32 12 17 1012.8 1012.8 1.6
01/01:00am 13.2 12.0 11.6 90 0.9 WSW 9 13 5 7 1013.1 1013.1 1.4
01/12:30am 13.1 11.1 11.5 90 0.8 SW 13 17 7 9 1013.1 1013.1 1.4
01/12:00am 13.4 11.7 11.3 87 1.1 WSW 11 17 6 9 1013.0 1013.0 1.2
 
Date/Time
CST
Temp
°C
App
Temp
°C
Dew
Point
Rel
Hum
%
Delta-T
°C
Wind Press
QNH
hPa
Press
MSL
hPa
Rain
since 9 am
mm
Dir
 
Spd
km/h
Gust
km/h
Spd
kts
Gust
kts
31/11:30pm 13.5 11.5 11.4 87 1.1 SW 13 17 7 9 1012.8 1012.8 1.2
31/11:00pm 13.5 11.5 11.6 88 1.0 SW 13 20 7 11 1012.9 1012.9 1.2
31/10:30pm 13.5 11.5 11.4 87 1.1 WSW 13 17 7 9 1013.1 1013.1 1.2
31/10:00pm 13.4 11.9 11.8 90 0.9 WSW 11 13 6 7 1012.9 1012.9 1.2
31/09:30pm 13.2 12.5 11.9 92 0.7 WSW 7 9 4 5 1013.0 1013.0 1.0
31/09:00pm 13.0 12.2 11.7 92 0.7 SSW 7 11 4 6 1012.5 1012.5 1.0
31/08:30pm 13.2 11.9 12.4 95 0.4 SSW 11 13 6 7 1012.3 1012.3 1.0
31/08:00pm 13.1 12.6 12.5 96 0.3 SSW 7 9 4 5 1012.4 1012.4 1.0
31/07:30pm 13.1 12.7 12.5 96 0.3 S 6 7 3 4 1012.2 1012.2 1.0
31/07:00pm 13.2 12.9 12.6 96 0.3 S 6 7 3 4 1012.0 1012.0 1.0
31/06:30pm 13.6 13.2 13.0 96 0.3 SSW 7 11 4 6 1012.0 1012.0 1.0
31/06:00pm 13.7 11.7 12.8 94 0.5 SSW 15 20 8 11 1011.9 1011.9 1.0
31/05:30pm 14.1 12.6 13.0 93 0.6 SSW 13 17 7 9 1011.9 1011.9 0.2
31/05:00pm 14.5 12.3 13.4 93 0.6 SW 17 20 9 11 1011.5 1011.5 0.0
31/04:30pm 15.3 13.1 13.3 88 1.1 SW 17 22 9 12 1011.4 1011.4 0.0
31/04:00pm 15.9 14.6 13.7 87 1.2 WSW 13 17 7 9 1011.3 1011.3 0.0
31/03:30pm 16.2 15.0 12.7 80 1.9 W 11 17 6 9 1010.9 1010.9 0.0
31/03:00pm 16.3 14.5 10.8 70 2.9 WNW 11 15 6 8 1010.6 1010.6 0.0
31/02:30pm 16.6 12.8 9.8 64 3.6 NW 20 26 11 14 1011.0 1011.0 0.0
31/02:00pm 17.8 14.0 9.9 60 4.2 NNW 20 30 11 16 1010.8 1010.8 0.0
31/01:30pm 16.7 12.7 8.1 57 4.4 NNW 19 26 10 14 1010.9 1010.9 0.0
31/01:00pm 16.8 12.0 7.2 53 4.8 NNW 22 28 12 15 1011.5 1011.5 0.0
31/12:30pm 16.4 11.9 6.2 51 5.0 NNW 19 26 10 14 1011.0 1011.0 0.0
31/12:00pm 16.3 12.3 6.7 53 4.7 NNW 17 20 9 11 1011.7 1011.7 0.0
31/11:30am 16.1 11.9 3.9 44 5.7 N 15 24 8 13 1011.6 1011.6 0.0
31/11:00am 16.2 12.1 4.6 46 5.5 N 15 22 8 12 1012.2 1012.2 0.0
31/10:30am 13.8 9.4 6.4 61 3.6 NNE 19 26 10 14 1011.8 1011.8 0.0
31/10:19am 13.4 8.8 5.8 60 3.6 E 19 22 10 12 1011.0 1011.0 0.0
31/10:00am 14.5 13.4 6.8 60 3.7 NNW 2 7 1 4 1013.0 1013.0 0.0
31/09:30am 13.0 10.7 4.9 58 3.7 E 6 7 3 4 1014.0 1014.0 0.0
31/09:00am 12.8 9.0 3.7 54 4.1 E 13 20 7 11 1013.7 1013.7 0.0
31/08:30am 11.9 9.0 4.9 62 3.2 E 9 15 5 8 1013.6 1013.6 0.0
31/08:00am 11.6 7.7 3.4 57 3.6 NNE 13 17 7 9 1013.1 1013.1 0.0
31/07:30am 11.4 5.7 2.7 55 3.8 NE 22 26 12 14 1012.8 1012.8 0.0
31/07:00am 12.1 6.5 3.6 56 3.8 NNE 22 28 12 15 1012.5 1012.5 0.0
31/06:30am 11.2 6.1 4.0 61 3.2 NE 20 26 11 14 1012.4 1012.4 0.0
31/06:00am 11.6 6.4 3.6 58 3.5 NE 20 24 11 13 1012.7 1012.7 0.0
31/05:30am 11.6 7.6 2.9 55 3.8 NNE 13 19 7 10 1012.9 1012.9 0.0
31/05:00am 11.6 6.6 4.6 62 3.2 NE 20 22 11 12 1013.1 1013.1 0.0
31/04:30am 11.7 7.4 5.3 65 3.0 NE 17 19 9 10 1013.5 1013.5 0.0
31/04:00am 12.5 9.8 5.7 63 3.2 NNE 9 15 5 8 1013.2 1013.2 0.0
31/03:30am 12.0 10.5 6.7 70 2.5 NNW 4 7 2 4 1013.8 1013.8 0.0
31/03:00am 10.0 8.2 3.5 64 2.8 NNE 2 4 1 2 1014.4 1014.5 0.0
31/02:30am 10.6 8.0 3.2 60 3.2 SW 6 9 3 5 1013.9 1013.9 0.0
31/02:00am 11.6 8.9 2.9 55 3.8 S 6 9 3 5 1013.8 1013.8 0.0
31/01:30am 12.5 5.6 4.7 59 3.6 ENE 30 32 16 17 1013.2 1013.2 0.0
31/01:00am 12.7 6.3 5.1 60 3.5 NE 28 32 15 17 1013.4 1013.4 0.0
31/12:30am 12.3 5.9 5.0 61 3.4 ENE 28 30 15 16 1013.7 1013.7 0.0
31/12:00am 12.1 6.0 4.8 61 3.3 ENE 26 28 14 15 1013.9 1013.9 0.0
 
Date/Time
CST
Temp
°C
App
Temp
°C
Dew
Point
Rel
Hum
%
Delta-T
°C
Wind Press
QNH
hPa
Press
MSL
hPa
Rain
since 9 am
mm
Dir
 
Spd
km/h
Gust
km/h
Spd
kts
Gust
kts
30/11:30pm 11.8 5.5 3.6 57 3.6 NE 26 28 14 15 1014.1 1014.1 0.0

Other Formats:

Comma delimited format used in spreadsheet applications
http://www.bom.gov.au/fwo/IDS60801/IDS60801.94658.axf

JavaScript Object Notation format (JSON) in row-major order
http://www.bom.gov.au/fwo/IDS60801/IDS60801.94658.json